createdAt,value
2023-01-20T00:00:33.844Z,0.70
2023-01-20T00:01:55.894Z,0.60
2023-01-20T00:03:18.039Z,0.60
2023-01-20T00:04:40.250Z,0.60
2023-01-20T00:06:02.521Z,0.60
2023-01-20T00:07:24.584Z,0.60
2023-01-20T00:08:54.570Z,0.60
2023-01-20T00:10:17.058Z,0.60
2023-01-20T00:11:39.110Z,0.60
2023-01-20T00:13:01.169Z,0.60
2023-01-20T00:14:25.546Z,0.60
2023-01-20T00:15:48.534Z,0.50
2023-01-20T00:17:10.712Z,0.50
2023-01-20T00:18:33.427Z,0.50
2023-01-20T00:19:55.537Z,0.50
2023-01-20T00:21:18.073Z,0.50
2023-01-20T00:22:42.327Z,0.50
2023-01-20T00:24:04.746Z,0.50
2023-01-20T00:25:26.779Z,0.50
2023-01-20T00:26:48.855Z,0.50
2023-01-20T00:28:10.967Z,0.50
2023-01-20T00:29:33.261Z,0.50
2023-01-20T00:30:55.412Z,0.50
2023-01-20T00:32:17.452Z,0.50
2023-01-20T00:33:40.060Z,0.50
2023-01-20T00:35:02.078Z,0.50
2023-01-20T00:36:25.675Z,0.50
2023-01-20T00:37:47.824Z,0.50
2023-01-20T00:39:10.023Z,0.40
2023-01-20T00:40:32.994Z,0.50
2023-01-20T00:41:55.098Z,0.40
2023-01-20T00:43:17.169Z,0.40
2023-01-20T00:44:39.198Z,0.40
2023-01-20T00:46:01.384Z,0.50
2023-01-20T00:47:23.531Z,0.40
2023-01-20T00:48:45.602Z,0.40
2023-01-20T00:50:08.136Z,0.40
2023-01-20T00:51:30.191Z,0.40
2023-01-20T00:52:52.219Z,0.40
2023-01-20T00:54:14.320Z,0.40
2023-01-20T00:55:36.392Z,0.40
2023-01-20T00:56:58.647Z,0.40
2023-01-20T00:58:21.235Z,0.40
2023-01-20T00:59:43.353Z,0.40
2023-01-20T01:01:05.716Z,0.40
2023-01-20T01:02:28.202Z,0.40
2023-01-20T01:03:54.105Z,0.40
2023-01-20T01:05:16.240Z,0.30
2023-01-20T01:06:39.484Z,0.30
2023-01-20T01:08:01.536Z,0.30
2023-01-20T01:09:23.623Z,0.30
2023-01-20T01:10:45.744Z,0.30
2023-01-20T01:12:07.859Z,0.30
2023-01-20T01:13:30.108Z,0.30
2023-01-20T01:14:52.198Z,0.20
2023-01-20T01:16:15.775Z,0.30
2023-01-20T01:17:37.850Z,0.30
2023-01-20T01:18:59.954Z,0.20
2023-01-20T01:20:22.187Z,0.20
2023-01-20T01:21:44.359Z,0.20
2023-01-20T01:23:06.408Z,0.20
2023-01-20T01:24:28.474Z,0.20
2023-01-20T01:25:50.523Z,0.10
2023-01-20T01:27:13.115Z,0.10
2023-01-20T01:28:35.220Z,0.10
2023-01-20T01:29:57.429Z,0.10
2023-01-20T01:31:21.920Z,0.10
2023-01-20T01:32:44.099Z,0.00
2023-01-20T01:34:06.254Z,0.10
2023-01-20T01:35:28.362Z,0.00
2023-01-20T01:36:50.504Z,0.00
2023-01-20T01:38:12.557Z,0.00
2023-01-20T01:39:34.625Z,0.00
2023-01-20T01:40:57.271Z,0.00
2023-01-20T01:42:23.024Z,0.00
2023-01-20T01:44:05.857Z,0.00
2023-01-20T01:45:29.986Z,0.00
2023-01-20T01:46:52.158Z,0.00
2023-01-20T01:48:14.585Z,0.00
2023-01-20T01:49:36.716Z,0.00
2023-01-20T01:51:04.611Z,0.00
2023-01-20T01:52:26.735Z,0.00
2023-01-20T01:53:54.765Z,0.00
2023-01-20T01:55:19.387Z,0.10
2023-01-20T01:56:43.530Z,0.10
2023-01-20T01:58:08.815Z,0.10
2023-01-20T01:59:31.057Z,0.10
2023-01-20T02:00:53.450Z,0.10
2023-01-20T02:02:15.599Z,0.10
2023-01-20T02:04:08.384Z,0.10
2023-01-20T02:05:31.144Z,0.10
2023-01-20T02:07:02.338Z,0.10
2023-01-20T02:08:25.723Z,0.10
2023-01-20T02:09:48.003Z,0.20
2023-01-20T02:11:10.073Z,0.20
2023-01-20T02:12:32.371Z,0.10
2023-01-20T02:13:54.533Z,0.10
2023-01-20T02:15:18.287Z,0.10
2023-01-20T02:17:17.385Z,0.10
2023-01-20T02:18:54.666Z,0.10
2023-01-20T02:20:52.113Z,0.00
2023-01-20T02:22:36.479Z,0.00
2023-01-20T02:24:17.894Z,0.00
2023-01-20T02:26:16.950Z,0.00
2023-01-20T02:28:11.339Z,0.00
2023-01-20T02:29:36.146Z,0.00
2023-01-20T02:31:35.175Z,-0.10
2023-01-20T02:33:03.938Z,-0.10
2023-01-20T02:34:31.235Z,-0.10
2023-01-20T02:36:02.490Z,-0.10
2023-01-20T02:37:30.086Z,-0.10
2023-01-20T02:39:04.727Z,-0.20
2023-01-20T02:40:50.230Z,-0.20
2023-01-20T02:42:25.073Z,-0.20
2023-01-20T02:44:08.871Z,-0.20
2023-01-20T02:45:47.556Z,-0.20
2023-01-20T02:47:24.004Z,-0.20
2023-01-20T02:48:54.928Z,-0.20
2023-01-20T02:50:39.623Z,-0.20
2023-01-20T02:52:07.007Z,-0.20
2023-01-20T02:53:36.692Z,-0.20
2023-01-20T02:55:10.491Z,-0.20
2023-01-20T02:56:34.879Z,-0.20
2023-01-20T02:58:02.846Z,-0.20
2023-01-20T02:59:28.912Z,-0.20
2023-01-20T03:00:59.995Z,-0.30
2023-01-20T03:02:26.515Z,-0.30
2023-01-20T03:03:52.980Z,-0.30
2023-01-20T03:05:19.909Z,-0.30
2023-01-20T03:06:47.310Z,-0.30
2023-01-20T03:08:13.342Z,-0.30
2023-01-20T03:09:40.396Z,-0.40
2023-01-20T03:11:08.274Z,-0.30
2023-01-20T03:12:52.136Z,-0.40
2023-01-20T03:14:15.196Z,-0.40
2023-01-20T03:15:56.759Z,-0.40
2023-01-20T03:17:20.020Z,-0.40
2023-01-20T03:18:42.097Z,-0.40
2023-01-20T03:20:04.712Z,-0.40
2023-01-20T03:21:27.600Z,-0.30
2023-01-20T03:22:49.880Z,-0.40
2023-01-20T03:24:12.311Z,-0.40
2023-01-20T03:25:34.812Z,-0.30
2023-01-20T03:26:57.942Z,-0.30
2023-01-20T03:28:20.058Z,-0.30
2023-01-20T03:29:42.130Z,-0.40
2023-01-20T03:31:36.273Z,-0.40
2023-01-20T03:32:58.920Z,-0.40
2023-01-20T03:34:23.745Z,-0.30
2023-01-20T03:35:46.008Z,-0.30
2023-01-20T03:37:09.203Z,-0.40
2023-01-20T03:38:31.426Z,-0.40
2023-01-20T03:39:53.782Z,-0.40
2023-01-20T03:41:37.978Z,-0.40
2023-01-20T03:43:39.726Z,-0.40
2023-01-20T03:45:10.031Z,-0.40
2023-01-20T03:47:05.832Z,-0.40
2023-01-20T03:48:33.844Z,-0.40
2023-01-20T03:50:04.763Z,-0.40
2023-01-20T03:51:42.884Z,-0.40
2023-01-20T03:53:32.342Z,-0.40
2023-01-20T03:55:04.213Z,-0.50
2023-01-20T03:56:42.658Z,-0.50
2023-01-20T03:58:09.544Z,-0.50
2023-01-20T03:59:35.810Z,-0.50
2023-01-20T04:00:59.022Z,-0.60
2023-01-20T04:02:23.892Z,-0.60
2023-01-20T04:03:48.802Z,-0.60
2023-01-20T04:05:12.638Z,-0.60
2023-01-20T04:06:36.343Z,-0.60
2023-01-20T04:08:02.312Z,-0.70
2023-01-20T04:09:29.044Z,-0.70
2023-01-20T04:10:51.672Z,-0.70
2023-01-20T04:12:14.039Z,-0.70
2023-01-20T04:13:36.506Z,-0.70
2023-01-20T04:14:58.619Z,-0.70
2023-01-20T04:16:21.775Z,-0.70
2023-01-20T04:17:43.963Z,-0.70
2023-01-20T04:19:06.129Z,-0.70
2023-01-20T04:20:28.256Z,-0.70
2023-01-20T04:22:00.122Z,-0.70
2023-01-20T04:23:30.669Z,-0.70
2023-01-20T04:24:58.211Z,-0.70
2023-01-20T04:26:20.220Z,-0.70
2023-01-20T04:27:42.283Z,-0.70
2023-01-20T04:29:10.535Z,-0.70
2023-01-20T04:30:34.797Z,-0.70
2023-01-20T04:32:04.001Z,-0.70
2023-01-20T04:33:26.282Z,-0.70
2023-01-20T04:34:51.562Z,-0.70
2023-01-20T04:36:13.640Z,-0.70
2023-01-20T04:37:35.699Z,-0.60
2023-01-20T04:38:57.761Z,-0.60
2023-01-20T04:40:19.947Z,-0.60
2023-01-20T04:41:42.039Z,-0.60
2023-01-20T04:43:04.118Z,-0.50
2023-01-20T04:44:26.197Z,-0.50
2023-01-20T04:45:48.275Z,-0.50
2023-01-20T04:47:10.337Z,-0.40
2023-01-20T04:48:32.363Z,-0.40
2023-01-20T04:49:54.410Z,-0.30
2023-01-20T04:51:16.482Z,-0.30
2023-01-20T04:52:38.764Z,-0.20
2023-01-20T04:54:00.881Z,-0.20
2023-01-20T04:55:23.014Z,-0.20
2023-01-20T04:56:45.163Z,-0.10
2023-01-20T04:58:07.279Z,-0.10
2023-01-20T04:59:29.349Z,-0.20
2023-01-20T05:00:51.524Z,-0.20
2023-01-20T05:02:13.908Z,-0.10
2023-01-20T05:03:36.166Z,-0.10
2023-01-20T05:04:58.201Z,-0.10
2023-01-20T05:06:20.315Z,-0.10
2023-01-20T05:07:42.425Z,0.00
2023-01-20T05:09:04.645Z,0.00
2023-01-20T05:10:26.759Z,0.10
2023-01-20T05:11:48.809Z,0.10
2023-01-20T05:13:10.846Z,0.20
2023-01-20T05:14:32.923Z,0.20
2023-01-20T05:15:54.962Z,0.30
2023-01-20T05:17:17.084Z,0.30
2023-01-20T05:18:39.341Z,0.30
2023-01-20T05:20:01.352Z,0.40
2023-01-20T05:21:23.618Z,0.50
2023-01-20T05:22:45.714Z,0.50
2023-01-20T05:24:08.361Z,0.60
2023-01-20T05:25:30.423Z,0.60
2023-01-20T05:26:52.516Z,0.60
2023-01-20T05:28:14.614Z,0.70
2023-01-20T05:29:36.624Z,0.70
2023-01-20T05:30:58.792Z,0.70
2023-01-20T05:32:21.030Z,0.70
2023-01-20T05:33:43.538Z,0.80
2023-01-20T05:35:06.010Z,0.80
2023-01-20T05:36:28.325Z,0.80
2023-01-20T05:37:54.551Z,0.80
2023-01-20T05:39:16.688Z,0.80
2023-01-20T05:40:38.781Z,0.80
2023-01-20T05:42:02.041Z,0.80
2023-01-20T05:43:24.292Z,0.80
2023-01-20T05:44:46.355Z,0.90
2023-01-20T05:46:08.478Z,0.90
2023-01-20T05:47:30.623Z,0.90
2023-01-20T05:48:52.702Z,0.90
2023-01-20T05:50:14.804Z,0.90
2023-01-20T05:51:36.838Z,0.90
2023-01-20T05:52:58.920Z,0.90
2023-01-20T05:54:21.015Z,1.00
2023-01-20T05:55:43.406Z,1.00
2023-01-20T05:57:05.627Z,1.00
2023-01-20T05:58:28.711Z,1.00
2023-01-20T05:59:52.136Z,1.00
2023-01-20T06:01:14.935Z,1.00
2023-01-20T06:02:37.134Z,1.00
2023-01-20T06:03:59.352Z,1.00
2023-01-20T06:05:22.015Z,1.00
2023-01-20T06:06:44.117Z,1.00
2023-01-20T06:08:06.423Z,1.00
2023-01-20T06:09:28.524Z,1.10
2023-01-20T06:10:53.225Z,1.10
2023-01-20T06:12:15.330Z,1.10
2023-01-20T06:13:39.489Z,1.10
2023-01-20T06:15:01.573Z,1.10
2023-01-20T06:16:23.696Z,1.20
2023-01-20T06:17:45.892Z,1.20
2023-01-20T06:19:07.991Z,1.20
2023-01-20T06:20:30.176Z,1.20
2023-01-20T06:21:53.512Z,1.20
2023-01-20T06:23:16.313Z,1.20
2023-01-20T06:24:38.388Z,1.20
2023-01-20T06:26:06.476Z,1.30
2023-01-20T06:27:28.623Z,1.30
2023-01-20T06:28:50.692Z,1.30
2023-01-20T06:30:12.972Z,1.30
2023-01-20T06:31:35.113Z,1.30
2023-01-20T06:32:57.877Z,1.30
2023-01-20T06:34:19.927Z,1.40
2023-01-20T06:35:41.963Z,1.40
2023-01-20T06:37:04.062Z,1.40
2023-01-20T06:38:28.958Z,1.40
2023-01-20T06:39:51.025Z,1.40
2023-01-20T06:41:13.370Z,1.40
2023-01-20T06:42:35.439Z,1.40
2023-01-20T06:43:58.065Z,1.40
2023-01-20T06:45:20.103Z,1.40
2023-01-20T06:46:42.214Z,1.40
2023-01-20T06:48:04.481Z,1.40
2023-01-20T06:49:26.591Z,1.40
2023-01-20T06:50:48.623Z,1.40
2023-01-20T06:52:10.641Z,1.40
2023-01-20T06:53:32.888Z,1.40
2023-01-20T06:54:54.990Z,1.40
2023-01-20T06:56:17.107Z,1.40
2023-01-20T06:57:39.133Z,1.50
2023-01-20T06:59:01.210Z,1.50
2023-01-20T07:00:23.811Z,1.50
2023-01-20T07:01:46.068Z,1.50
2023-01-20T07:03:08.590Z,1.50
2023-01-20T07:04:30.648Z,1.50
2023-01-20T07:06:04.666Z,1.50
2023-01-20T07:07:27.003Z,1.60
2023-01-20T07:08:49.154Z,1.60
2023-01-20T07:10:11.512Z,1.60
2023-01-20T07:11:35.180Z,1.50
2023-01-20T07:12:57.251Z,1.60
2023-01-20T07:14:19.251Z,1.60
2023-01-20T07:15:41.259Z,1.60
2023-01-20T07:17:03.311Z,1.60
2023-01-20T07:18:25.409Z,1.60
2023-01-20T07:19:47.490Z,1.60
2023-01-20T07:21:12.411Z,1.60
2023-01-20T07:22:34.488Z,1.60
2023-01-20T07:23:59.337Z,1.60
2023-01-20T07:25:21.422Z,1.60
2023-01-20T07:26:44.331Z,1.60
2023-01-20T07:28:06.469Z,1.60
2023-01-20T07:29:28.597Z,1.60
2023-01-20T07:30:50.663Z,1.60
2023-01-20T07:32:12.793Z,1.60
2023-01-20T07:33:35.473Z,1.60
2023-01-20T07:34:57.661Z,1.60
2023-01-20T07:36:20.218Z,1.60
2023-01-20T07:37:42.302Z,1.60
2023-01-20T07:39:04.321Z,1.60
2023-01-20T07:40:26.333Z,1.60
2023-01-20T07:41:51.267Z,1.60
2023-01-20T07:43:13.626Z,1.60
2023-01-20T07:44:35.674Z,1.60
2023-01-20T07:45:59.425Z,1.60
2023-01-20T07:47:21.460Z,1.60
2023-01-20T07:48:43.634Z,1.60
2023-01-20T07:50:06.076Z,1.60
2023-01-20T07:51:28.158Z,1.60
2023-01-20T07:52:50.198Z,1.60
2023-01-20T07:54:12.328Z,1.60
2023-01-20T07:55:34.452Z,1.60
2023-01-20T07:56:56.518Z,1.60
2023-01-20T07:58:18.602Z,1.60
2023-01-20T07:59:40.659Z,1.60
2023-01-20T08:01:19.214Z,1.60
2023-01-20T08:02:41.368Z,1.60
2023-01-20T08:04:04.181Z,1.60
2023-01-20T08:05:26.351Z,1.60
2023-01-20T08:06:48.396Z,1.60
2023-01-20T08:08:10.491Z,1.60
2023-01-20T08:09:32.524Z,1.60
2023-01-20T08:10:55.087Z,1.70
2023-01-20T08:12:17.468Z,1.70
2023-01-20T08:13:39.955Z,1.70
2023-01-20T08:15:01.979Z,1.70
2023-01-20T08:16:24.075Z,1.60
2023-01-20T08:17:46.161Z,1.70
2023-01-20T08:19:08.440Z,1.70
2023-01-20T08:20:31.232Z,1.70
2023-01-20T08:21:53.314Z,1.70
2023-01-20T08:23:15.456Z,1.70
2023-01-20T08:24:37.673Z,1.70
2023-01-20T08:26:02.046Z,1.70
2023-01-20T08:27:24.273Z,1.70
2023-01-20T08:28:46.939Z,1.80
2023-01-20T08:30:09.677Z,1.80
2023-01-20T08:31:31.966Z,1.80
2023-01-20T08:32:54.210Z,1.80
2023-01-20T08:34:18.724Z,1.80
2023-01-20T08:35:40.793Z,1.80
2023-01-20T08:37:02.824Z,1.80
2023-01-20T08:38:24.960Z,1.90
2023-01-20T08:39:46.995Z,1.90
2023-01-20T08:41:21.639Z,1.90
2023-01-20T08:42:46.221Z,1.90
2023-01-20T08:44:09.736Z,1.90
2023-01-20T08:45:31.787Z,1.90
2023-01-20T08:46:57.998Z,1.90
2023-01-20T08:48:21.431Z,1.90
2023-01-20T08:49:43.485Z,1.90
2023-01-20T08:51:16.677Z,1.90
2023-01-20T08:52:38.771Z,2.00
2023-01-20T08:54:01.773Z,2.00
2023-01-20T08:55:23.901Z,2.00
2023-01-20T08:56:45.989Z,2.00
2023-01-20T08:58:08.123Z,2.00
2023-01-20T08:59:30.176Z,2.10
2023-01-20T09:00:52.663Z,2.10
2023-01-20T09:02:14.803Z,2.10
2023-01-20T09:03:37.175Z,2.10
2023-01-20T09:04:59.230Z,2.10
2023-01-20T09:06:21.851Z,2.10
2023-01-20T09:07:45.112Z,2.10
2023-01-20T09:09:07.214Z,2.10
2023-01-20T09:10:32.040Z,2.10
2023-01-20T09:11:54.662Z,2.10
2023-01-20T09:13:16.976Z,2.10
2023-01-20T09:14:39.356Z,2.10
2023-01-20T09:16:01.700Z,2.10
2023-01-20T09:17:23.737Z,2.10
2023-01-20T09:18:45.940Z,2.10
2023-01-20T09:20:08.781Z,2.10
2023-01-20T09:21:30.962Z,2.20
2023-01-20T09:22:53.175Z,2.20
2023-01-20T09:24:15.320Z,2.20
2023-01-20T09:25:37.351Z,2.30
2023-01-20T09:26:59.577Z,2.40
2023-01-20T09:28:21.606Z,2.50
2023-01-20T09:29:43.683Z,2.60
2023-01-20T09:31:09.009Z,2.60
2023-01-20T09:32:32.690Z,2.70
2023-01-20T09:33:55.864Z,2.80
2023-01-20T09:35:18.315Z,2.80
2023-01-20T09:36:40.494Z,2.80
2023-01-20T09:38:21.682Z,2.80
2023-01-20T09:40:02.337Z,2.80
2023-01-20T09:41:50.684Z,2.90
2023-01-20T09:43:57.005Z,2.90
2023-01-20T09:45:30.820Z,2.90
2023-01-20T09:47:19.760Z,2.80
2023-01-20T09:49:15.439Z,2.80
2023-01-20T09:51:12.643Z,2.80
2023-01-20T09:52:55.998Z,2.90
2023-01-20T09:54:26.879Z,2.90
2023-01-20T09:55:57.661Z,2.90
2023-01-20T09:57:24.343Z,2.90
2023-01-20T09:59:05.589Z,2.90
2023-01-20T10:00:31.472Z,2.90
2023-01-20T10:02:00.276Z,2.90
2023-01-20T10:03:42.082Z,2.90
2023-01-20T10:05:19.123Z,2.90
2023-01-20T10:06:44.049Z,2.90
2023-01-20T10:08:13.261Z,2.80
2023-01-20T10:09:45.917Z,2.80
2023-01-20T10:11:14.902Z,2.80
2023-01-20T10:12:59.397Z,2.90
2023-01-20T10:14:36.266Z,2.90
2023-01-20T10:16:02.194Z,2.90
2023-01-20T10:17:33.301Z,3.00
2023-01-20T10:19:04.842Z,3.00
2023-01-20T10:20:41.332Z,3.10
2023-01-20T10:22:22.107Z,3.10
2023-01-20T10:23:56.057Z,3.20
2023-01-20T10:25:35.004Z,3.30
2023-01-20T10:27:02.533Z,3.30
2023-01-20T10:28:29.505Z,3.40
2023-01-20T10:30:10.389Z,3.40
2023-01-20T10:31:40.735Z,3.50
2023-01-20T10:33:21.216Z,3.60
2023-01-20T10:34:50.033Z,3.60
2023-01-20T10:36:46.036Z,3.60
2023-01-20T10:38:19.899Z,3.60
2023-01-20T10:40:01.708Z,3.60
2023-01-20T10:41:38.671Z,3.60
2023-01-20T10:43:10.415Z,3.70
2023-01-20T10:44:35.986Z,3.70
2023-01-20T10:46:12.420Z,3.70
2023-01-20T10:47:47.326Z,3.70
2023-01-20T10:49:27.524Z,3.70
2023-01-20T10:50:52.316Z,3.70
2023-01-20T10:52:43.850Z,3.60
2023-01-20T10:54:32.879Z,3.60
2023-01-20T10:56:17.202Z,3.60
2023-01-20T10:57:39.339Z,3.60
2023-01-20T10:59:09.038Z,3.60
2023-01-20T11:00:32.747Z,3.60
2023-01-20T11:02:11.221Z,3.60
2023-01-20T11:03:42.352Z,3.60
2023-01-20T11:05:18.885Z,3.60
2023-01-20T11:06:40.969Z,3.60
2023-01-20T11:08:10.069Z,3.50
2023-01-20T11:09:41.765Z,3.50
2023-01-20T11:11:15.479Z,3.50
2023-01-20T11:12:40.549Z,3.50
2023-01-20T11:14:03.840Z,3.50
2023-01-20T11:15:30.659Z,3.50
2023-01-20T11:17:00.815Z,3.50
2023-01-20T11:18:27.761Z,3.40
2023-01-20T11:19:53.306Z,3.50
2023-01-20T11:21:22.368Z,3.50
2023-01-20T11:22:47.807Z,3.50
2023-01-20T11:24:42.895Z,3.50
2023-01-20T11:26:18.881Z,3.50
2023-01-20T11:27:44.335Z,3.50
2023-01-20T11:29:09.378Z,3.50
2023-01-20T11:30:34.152Z,3.50
2023-01-20T11:31:56.811Z,3.50
2023-01-20T11:33:28.257Z,3.50
2023-01-20T11:34:50.388Z,3.40
2023-01-20T11:36:18.914Z,3.40
2023-01-20T11:37:41.042Z,3.40
2023-01-20T11:39:05.879Z,3.40
2023-01-20T11:40:29.082Z,3.30
2023-01-20T11:42:12.218Z,3.30
2023-01-20T11:43:38.341Z,3.30
2023-01-20T11:45:20.395Z,3.30
2023-01-20T11:46:43.202Z,3.30
2023-01-20T11:48:16.130Z,3.30
2023-01-20T11:49:38.562Z,3.30
2023-01-20T11:51:03.947Z,3.30
2023-01-20T11:52:26.211Z,3.30
2023-01-20T11:53:48.530Z,3.30
2023-01-20T11:55:15.081Z,3.30
2023-01-20T11:56:42.845Z,3.30
2023-01-20T11:58:04.948Z,3.30
2023-01-20T11:59:35.357Z,3.30
2023-01-20T12:01:06.021Z,3.30
2023-01-20T12:02:28.446Z,3.20
2023-01-20T12:04:17.519Z,3.20
2023-01-20T12:05:44.022Z,3.20
2023-01-20T12:07:12.365Z,3.20
2023-01-20T12:08:42.596Z,3.20
2023-01-20T12:10:20.549Z,3.10
2023-01-20T12:11:54.523Z,3.10
2023-01-20T12:13:21.567Z,3.10
2023-01-20T12:15:13.909Z,3.10
2023-01-20T12:16:37.586Z,3.10
2023-01-20T12:18:22.226Z,3.10
2023-01-20T12:19:53.407Z,3.10
2023-01-20T12:21:20.201Z,3.10
2023-01-20T12:23:21.324Z,3.10
2023-01-20T12:25:09.404Z,3.10
2023-01-20T12:26:35.360Z,3.00
2023-01-20T12:28:05.545Z,3.00
2023-01-20T12:29:44.788Z,3.00
2023-01-20T12:31:10.994Z,3.00
2023-01-20T12:32:33.340Z,3.00
2023-01-20T12:34:16.126Z,3.00
2023-01-20T12:35:45.640Z,3.00
2023-01-20T12:37:17.188Z,3.00
2023-01-20T12:38:58.460Z,3.00
2023-01-20T12:40:26.565Z,3.00
2023-01-20T12:42:05.306Z,3.00
2023-01-20T12:43:46.235Z,3.00
2023-01-20T12:45:17.964Z,3.00
2023-01-20T12:46:46.068Z,3.00
2023-01-20T12:48:25.943Z,3.00
2023-01-20T12:50:09.345Z,3.00
2023-01-20T12:51:52.413Z,3.00
2023-01-20T12:53:38.924Z,3.00
2023-01-20T12:55:20.251Z,3.00
2023-01-20T12:56:45.014Z,3.00
2023-01-20T12:58:28.976Z,2.90
2023-01-20T13:00:15.759Z,2.90
2023-01-20T13:01:45.518Z,2.90
2023-01-20T13:03:22.471Z,2.90
2023-01-20T13:05:09.323Z,2.90
2023-01-20T13:06:43.731Z,2.90
2023-01-20T13:08:21.435Z,2.90
2023-01-20T13:09:49.173Z,2.90
2023-01-20T13:11:16.916Z,2.90
2023-01-20T13:12:41.796Z,2.90
2023-01-20T13:14:19.592Z,2.90
2023-01-20T13:15:46.084Z,3.00
2023-01-20T13:17:32.838Z,3.00
2023-01-20T13:19:19.422Z,2.90
2023-01-20T13:20:45.511Z,2.90
2023-01-20T13:22:14.611Z,2.90
2023-01-20T13:23:37.803Z,3.00
2023-01-20T13:25:04.695Z,3.00
2023-01-20T13:26:29.151Z,2.90
2023-01-20T13:27:54.290Z,2.90
2023-01-20T13:29:41.565Z,2.90
2023-01-20T13:31:43.956Z,2.90
2023-01-20T13:33:26.543Z,2.90
2023-01-20T13:34:48.626Z,2.90
2023-01-20T13:36:18.907Z,2.90
2023-01-20T13:37:47.822Z,2.90
2023-01-20T13:39:40.548Z,2.80
2023-01-20T13:41:05.685Z,2.80
2023-01-20T13:42:36.622Z,2.80
2023-01-20T13:43:58.839Z,2.80
2023-01-20T13:45:23.088Z,2.80
2023-01-20T13:46:46.398Z,2.80
2023-01-20T13:48:08.399Z,2.80
2023-01-20T13:49:50.763Z,2.80
2023-01-20T13:51:15.670Z,2.80
2023-01-20T13:52:52.916Z,2.80
2023-01-20T13:54:35.390Z,2.70
2023-01-20T13:56:00.099Z,2.70
2023-01-20T13:57:27.838Z,2.70
2023-01-20T13:58:50.211Z,2.70
2023-01-20T14:00:13.587Z,2.70
2023-01-20T14:01:37.244Z,2.70
2023-01-20T14:03:11.640Z,2.70
2023-01-20T14:04:34.034Z,2.70
2023-01-20T14:05:57.468Z,2.70
2023-01-20T14:07:24.064Z,2.70
2023-01-20T14:08:50.376Z,2.70
2023-01-20T14:10:13.278Z,2.60
2023-01-20T14:11:35.510Z,2.60
2023-01-20T14:12:57.594Z,2.60
2023-01-20T14:14:21.847Z,2.60
2023-01-20T14:15:48.291Z,2.60
2023-01-20T14:17:17.350Z,2.60
2023-01-20T14:18:40.944Z,2.60
2023-01-20T14:20:21.501Z,2.60
2023-01-20T14:21:43.591Z,2.60
2023-01-20T14:23:36.188Z,2.60
2023-01-20T14:25:02.451Z,2.60
2023-01-20T14:26:26.952Z,2.60
2023-01-20T14:27:49.034Z,2.60
2023-01-20T14:29:20.109Z,2.60
2023-01-20T14:30:42.298Z,2.60
2023-01-20T14:32:20.050Z,2.60
2023-01-20T14:33:50.727Z,2.60
2023-01-20T14:35:31.171Z,2.70
2023-01-20T14:36:55.169Z,2.70
2023-01-20T14:38:18.445Z,2.70
2023-01-20T14:39:41.023Z,2.70
2023-01-20T14:41:03.106Z,2.60
2023-01-20T14:42:27.328Z,2.60
2023-01-20T14:43:49.438Z,2.60
2023-01-20T14:45:22.785Z,2.60
2023-01-20T14:46:47.538Z,2.60
2023-01-20T14:48:13.626Z,2.60
2023-01-20T14:49:43.322Z,2.60
2023-01-20T14:51:06.134Z,2.60
2023-01-20T14:52:30.970Z,2.60
2023-01-20T14:54:29.076Z,2.60
2023-01-20T14:56:08.293Z,2.50
2023-01-20T14:57:30.871Z,2.50
2023-01-20T14:58:54.915Z,2.50
2023-01-20T15:00:17.242Z,2.50
2023-01-20T15:01:40.071Z,2.50
2023-01-20T15:03:14.276Z,2.50
2023-01-20T15:04:37.872Z,2.50
2023-01-20T15:06:21.822Z,2.50
2023-01-20T15:07:43.904Z,2.50
2023-01-20T15:09:24.714Z,2.40
2023-01-20T15:10:47.249Z,2.40
2023-01-20T15:12:39.603Z,2.40
2023-01-20T15:14:01.689Z,2.40
2023-01-20T15:15:28.225Z,2.40
2023-01-20T15:16:50.662Z,2.40
2023-01-20T15:18:23.885Z,2.40
2023-01-20T15:19:46.320Z,2.40
2023-01-20T15:21:27.951Z,2.40
2023-01-20T15:22:51.082Z,2.40
2023-01-20T15:24:17.042Z,2.40
2023-01-20T15:25:39.140Z,2.40
2023-01-20T15:27:02.853Z,2.40
2023-01-20T15:28:29.338Z,2.40
2023-01-20T15:30:03.904Z,2.40
2023-01-20T15:31:26.581Z,2.30
2023-01-20T15:32:50.644Z,2.40
2023-01-20T15:34:12.764Z,2.40
2023-01-20T15:35:34.884Z,2.40
2023-01-20T15:36:57.156Z,2.40
2023-01-20T15:38:19.228Z,2.30
2023-01-20T15:39:41.310Z,2.30
2023-01-20T15:41:03.334Z,2.30
2023-01-20T15:42:25.407Z,2.30
2023-01-20T15:43:49.100Z,2.30
2023-01-20T15:45:18.149Z,2.30
2023-01-20T15:46:41.073Z,2.30
2023-01-20T15:48:11.362Z,2.30
2023-01-20T15:49:33.391Z,2.30
2023-01-20T15:50:55.492Z,2.30
2023-01-20T15:52:17.693Z,2.30
2023-01-20T15:53:39.763Z,2.30
2023-01-20T15:55:01.881Z,2.30
2023-01-20T15:56:28.058Z,2.30
2023-01-20T15:57:52.347Z,2.30
2023-01-20T15:59:16.802Z,2.30
2023-01-20T16:00:40.584Z,2.30
2023-01-20T16:02:03.181Z,2.30
2023-01-20T16:03:26.588Z,2.30
2023-01-20T16:04:49.014Z,2.30
2023-01-20T16:06:16.283Z,2.30
2023-01-20T16:07:40.063Z,2.30
2023-01-20T16:09:03.573Z,2.30
2023-01-20T16:10:25.722Z,2.30
2023-01-20T16:11:47.802Z,2.30
2023-01-20T16:13:10.753Z,2.30
2023-01-20T16:14:32.842Z,2.30
2023-01-20T16:15:56.000Z,2.30
2023-01-20T16:17:23.193Z,2.30
2023-01-20T16:18:45.835Z,2.20
2023-01-20T16:20:27.119Z,2.20
2023-01-20T16:21:49.180Z,2.20
2023-01-20T16:23:12.335Z,2.30
2023-01-20T16:24:35.079Z,2.30
2023-01-20T16:25:57.265Z,2.20
2023-01-20T16:27:21.842Z,2.30
2023-01-20T16:28:43.968Z,2.30
2023-01-20T16:30:07.045Z,2.30
2023-01-20T16:31:29.301Z,2.20
2023-01-20T16:32:51.887Z,2.20
2023-01-20T16:34:13.930Z,2.20
2023-01-20T16:35:35.981Z,2.20
2023-01-20T16:36:58.029Z,2.20
2023-01-20T16:38:22.618Z,2.20
2023-01-20T16:39:44.681Z,2.20
2023-01-20T16:41:13.520Z,2.20
2023-01-20T16:42:35.873Z,2.20
2023-01-20T16:43:58.610Z,2.20
2023-01-20T16:45:30.140Z,2.20
2023-01-20T16:46:52.302Z,2.10
2023-01-20T16:48:14.448Z,2.10
2023-01-20T16:49:36.712Z,2.20
2023-01-20T16:51:04.514Z,2.20
2023-01-20T16:52:26.611Z,2.20
2023-01-20T16:53:49.349Z,2.20
2023-01-20T16:55:13.482Z,2.20
2023-01-20T16:56:35.827Z,2.20
2023-01-20T16:57:57.910Z,2.20
2023-01-20T16:59:20.078Z,2.20
2023-01-20T17:00:42.396Z,2.20
2023-01-20T17:02:04.631Z,2.20
2023-01-20T17:03:27.415Z,2.20
2023-01-20T17:04:49.493Z,2.20
2023-01-20T17:06:13.892Z,2.20
2023-01-20T17:07:36.511Z,2.20
2023-01-20T17:09:00.220Z,2.30
2023-01-20T17:10:22.409Z,2.30
2023-01-20T17:11:44.506Z,2.30
2023-01-20T17:13:06.516Z,2.30
2023-01-20T17:14:28.673Z,2.30
2023-01-20T17:15:51.851Z,2.20
2023-01-20T17:17:13.883Z,2.30
2023-01-20T17:18:35.923Z,2.20
2023-01-20T17:19:57.972Z,2.20
2023-01-20T17:21:21.559Z,2.20
2023-01-20T17:22:43.613Z,2.20
2023-01-20T17:24:06.698Z,2.20
2023-01-20T17:25:28.840Z,2.20
2023-01-20T17:26:50.934Z,2.20
2023-01-20T17:28:13.010Z,2.20
2023-01-20T17:29:35.467Z,2.20
2023-01-20T17:31:07.270Z,2.10
2023-01-20T17:32:29.321Z,2.10
2023-01-20T17:33:51.614Z,2.10
2023-01-20T17:35:13.812Z,2.10
2023-01-20T17:36:35.937Z,2.10
2023-01-20T17:37:58.278Z,2.10
2023-01-20T17:39:20.323Z,2.10
2023-01-20T17:40:42.415Z,2.20
2023-01-20T17:42:05.217Z,2.20
2023-01-20T17:43:34.923Z,2.20
2023-01-20T17:45:01.289Z,2.20
2023-01-20T17:46:27.738Z,2.20
2023-01-20T17:47:51.569Z,2.20
2023-01-20T17:49:13.778Z,2.20
2023-01-20T17:50:35.871Z,2.20
2023-01-20T17:51:57.921Z,2.20
2023-01-20T17:53:19.945Z,2.20
2023-01-20T17:54:42.098Z,2.20
2023-01-20T17:56:12.495Z,2.20
2023-01-20T17:57:35.385Z,2.20
2023-01-20T17:58:57.496Z,2.20
2023-01-20T18:00:19.833Z,2.20
2023-01-20T18:01:42.110Z,2.20
2023-01-20T18:03:04.257Z,2.20
2023-01-20T18:04:26.480Z,2.20
2023-01-20T18:05:49.127Z,2.20
2023-01-20T18:07:11.181Z,2.20
2023-01-20T18:08:33.587Z,2.20
2023-01-20T18:09:55.590Z,2.20
2023-01-20T18:11:22.877Z,2.20
2023-01-20T18:12:45.056Z,2.20
2023-01-20T18:14:07.927Z,2.20
2023-01-20T18:15:30.100Z,2.20
2023-01-20T18:16:53.454Z,2.20
2023-01-20T18:18:15.495Z,2.20
2023-01-20T18:19:37.609Z,2.20
2023-01-20T18:21:18.187Z,2.20
2023-01-20T18:22:40.932Z,2.20
2023-01-20T18:24:05.335Z,2.20
2023-01-20T18:25:27.380Z,2.20
2023-01-20T18:26:49.529Z,2.20
2023-01-20T18:28:12.498Z,2.20
2023-01-20T18:29:36.092Z,2.20
2023-01-20T18:31:08.066Z,2.20
2023-01-20T18:32:30.237Z,2.20
2023-01-20T18:33:57.405Z,2.20
2023-01-20T18:35:19.574Z,2.10
2023-01-20T18:36:45.922Z,2.10
2023-01-20T18:38:08.014Z,2.10
2023-01-20T18:39:30.474Z,2.00
2023-01-20T18:40:52.528Z,2.00
2023-01-20T18:42:14.574Z,2.00
2023-01-20T18:43:37.055Z,2.00
2023-01-20T18:44:59.202Z,1.90
2023-01-20T18:46:21.544Z,2.00
2023-01-20T18:47:43.688Z,2.00
2023-01-20T18:49:09.302Z,2.00
2023-01-20T18:50:31.728Z,2.00
2023-01-20T18:51:53.836Z,2.10
2023-01-20T18:53:15.988Z,2.10
2023-01-20T18:54:39.099Z,2.10
2023-01-20T18:56:02.548Z,2.10
2023-01-20T18:57:24.640Z,2.20
2023-01-20T18:58:47.356Z,2.20
2023-01-20T19:00:10.227Z,2.20
2023-01-20T19:01:34.713Z,2.20
2023-01-20T19:02:58.366Z,2.20
2023-01-20T19:04:20.417Z,2.20
2023-01-20T19:05:43.652Z,2.20
2023-01-20T19:07:05.966Z,2.20